sensor_id;sensor_type;location;lat;lon;timestamp;P1;durP1;ratioP1;P2;durP2;ratioP2
26536;SDS011;14204;51.262;5.488;2023-08-31T00:00:31;5.32;;;2.65;;
26536;SDS011;14204;51.262;5.488;2023-08-31T00:02:59;5.35;;;2.88;;
26536;SDS011;14204;51.262;5.488;2023-08-31T00:05:25;4.07;;;3.00;;
26536;SDS011;14204;51.262;5.488;2023-08-31T00:07:54;3.22;;;2.92;;
26536;SDS011;14204;51.262;5.488;2023-08-31T00:10:19;5.50;;;3.05;;
26536;SDS011;14204;51.262;5.488;2023-08-31T00:12:45;3.22;;;2.92;;
26536;SDS011;14204;51.262;5.488;2023-08-31T00:15:11;5.47;;;3.45;;
26536;SDS011;14204;51.262;5.488;2023-08-31T00:17:37;7.88;;;2.90;;
26536;SDS011;14204;51.262;5.488;2023-08-31T00:20:03;3.28;;;2.70;;
26536;SDS011;14204;51.262;5.488;2023-08-31T00:22:31;4.03;;;3.00;;
26536;SDS011;14204;51.262;5.488;2023-08-31T00:24:57;5.43;;;3.03;;
26536;SDS011;14204;51.262;5.488;2023-08-31T00:27:23;5.43;;;3.08;;
26536;SDS011;14204;51.262;5.488;2023-08-31T00:29:49;3.33;;;3.00;;
26536;SDS011;14204;51.262;5.488;2023-08-31T00:32:16;4.80;;;3.45;;
26536;SDS011;14204;51.262;5.488;2023-08-31T00:34:43;6.25;;;3.80;;
26536;SDS011;14204;51.262;5.488;2023-08-31T00:37:09;7.22;;;4.07;;
26536;SDS011;14204;51.262;5.488;2023-08-31T00:39:35;3.53;;;3.10;;
26536;SDS011;14204;51.262;5.488;2023-08-31T00:42:01;5.55;;;3.58;;
26536;SDS011;14204;51.262;5.488;2023-08-31T00:44:26;5.55;;;3.40;;
26536;SDS011;14204;51.262;5.488;2023-08-31T00:46:52;6.05;;;3.63;;
26536;SDS011;14204;51.262;5.488;2023-08-31T00:49:18;5.25;;;3.38;;
26536;SDS011;14204;51.262;5.488;2023-08-31T00:51:44;5.15;;;3.70;;
26536;SDS011;14204;51.262;5.488;2023-08-31T00:54:18;3.73;;;2.93;;
26536;SDS011;14204;51.262;5.488;2023-08-31T00:56:46;3.67;;;3.22;;
26536;SDS011;14204;51.262;5.488;2023-08-31T00:59:17;4.40;;;3.92;;
26536;SDS011;14204;51.262;5.488;2023-08-31T01:01:44;7.47;;;3.42;;
26536;SDS011;14204;51.262;5.488;2023-08-31T01:04:20;4.20;;;3.10;;
26536;SDS011;14204;51.262;5.488;2023-08-31T01:10:11;4.45;;;3.60;;
26536;SDS011;14204;51.262;5.488;2023-08-31T01:12:49;3.95;;;3.38;;
26536;SDS011;14204;51.262;5.488;2023-08-31T01:15:17;5.72;;;3.90;;
26536;SDS011;14204;51.262;5.488;2023-08-31T01:17:44;4.47;;;3.53;;
26536;SDS011;14204;51.262;5.488;2023-08-31T01:20:14;4.10;;;3.72;;
26536;SDS011;14204;51.262;5.488;2023-08-31T01:25:28;4.95;;;3.35;;
26536;SDS011;14204;51.262;5.488;2023-08-31T01:27:56;6.60;;;4.03;;
26536;SDS011;14204;51.262;5.488;2023-08-31T01:30:23;6.10;;;3.60;;
26536;SDS011;14204;51.262;5.488;2023-08-31T01:32:49;4.88;;;3.78;;
26536;SDS011;14204;51.262;5.488;2023-08-31T01:35:16;4.97;;;3.80;;
26536;SDS011;14204;51.262;5.488;2023-08-31T01:42:48;6.00;;;4.68;;
26536;SDS011;14204;51.262;5.488;2023-08-31T01:45:23;6.63;;;4.70;;
26536;SDS011;14204;51.262;5.488;2023-08-31T01:47:50;7.20;;;5.13;;
26536;SDS011;14204;51.262;5.488;2023-08-31T01:50:16;8.75;;;4.63;;
26536;SDS011;14204;51.262;5.488;2023-08-31T01:52:42;5.95;;;5.43;;
26536;SDS011;14204;51.262;5.488;2023-08-31T01:55:08;9.27;;;5.13;;
26536;SDS011;14204;51.262;5.488;2023-08-31T01:57:34;7.47;;;4.63;;
26536;SDS011;14204;51.262;5.488;2023-08-31T01:59:59;5.13;;;4.60;;
26536;SDS011;14204;51.262;5.488;2023-08-31T02:02:25;7.13;;;4.28;;
26536;SDS011;14204;51.262;5.488;2023-08-31T02:04:51;6.10;;;4.50;;
26536;SDS011;14204;51.262;5.488;2023-08-31T02:07:17;6.35;;;4.18;;
26536;SDS011;14204;51.262;5.488;2023-08-31T02:09:43;8.50;;;4.25;;
26536;SDS011;14204;51.262;5.488;2023-08-31T02:12:08;4.68;;;4.20;;
26536;SDS011;14204;51.262;5.488;2023-08-31T02:14:37;5.65;;;4.13;;
26536;SDS011;14204;51.262;5.488;2023-08-31T02:17:04;5.95;;;3.92;;
26536;SDS011;14204;51.262;5.488;2023-08-31T02:19:29;5.82;;;3.78;;
26536;SDS011;14204;51.262;5.488;2023-08-31T02:21:55;6.05;;;3.78;;
26536;SDS011;14204;51.262;5.488;2023-08-31T02:24:21;5.20;;;3.72;;
26536;SDS011;14204;51.262;5.488;2023-08-31T02:26:47;6.95;;;4.45;;
26536;SDS011;14204;51.262;5.488;2023-08-31T02:29:13;7.80;;;4.65;;
26536;SDS011;14204;51.262;5.488;2023-08-31T02:31:39;8.00;;;4.50;;
26536;SDS011;14204;51.262;5.488;2023-08-31T02:34:06;9.35;;;4.65;;
26536;SDS011;14204;51.262;5.488;2023-08-31T02:36:32;8.95;;;5.70;;
26536;SDS011;14204;51.262;5.488;2023-08-31T02:38:58;9.65;;;5.90;;
26536;SDS011;14204;51.262;5.488;2023-08-31T02:41:23;7.97;;;5.57;;
26536;SDS011;14204;51.262;5.488;2023-08-31T02:43:50;8.50;;;5.18;;
26536;SDS011;14204;51.262;5.488;2023-08-31T02:46:17;9.75;;;5.97;;
26536;SDS011;14204;51.262;5.488;2023-08-31T02:48:43;9.20;;;6.45;;
26536;SDS011;14204;51.262;5.488;2023-08-31T02:51:09;10.18;;;5.80;;
26536;SDS011;14204;51.262;5.488;2023-08-31T02:53:35;10.43;;;6.40;;
26536;SDS011;14204;51.262;5.488;2023-08-31T02:56:00;12.07;;;6.20;;
26536;SDS011;14204;51.262;5.488;2023-08-31T02:58:27;8.95;;;5.45;;
26536;SDS011;14204;51.262;5.488;2023-08-31T03:00:52;7.22;;;5.90;;
26536;SDS011;14204;51.262;5.488;2023-08-31T03:03:18;8.32;;;6.20;;
26536;SDS011;14204;51.262;5.488;2023-08-31T03:05:44;12.27;;;5.90;;
26536;SDS011;14204;51.262;5.488;2023-08-31T03:08:10;10.45;;;5.95;;
26536;SDS011;14204;51.262;5.488;2023-08-31T03:10:36;7.30;;;6.20;;
26536;SDS011;14204;51.262;5.488;2023-08-31T03:13:03;9.15;;;6.35;;
26536;SDS011;14204;51.262;5.488;2023-08-31T03:15:29;7.03;;;6.15;;
26536;SDS011;14204;51.262;5.488;2023-08-31T03:17:57;10.48;;;6.70;;
26536;SDS011;14204;51.262;5.488;2023-08-31T03:20:23;7.90;;;6.32;;
26536;SDS011;14204;51.262;5.488;2023-08-31T03:22:49;11.50;;;6.53;;
26536;SDS011;14204;51.262;5.488;2023-08-31T03:25:14;10.32;;;6.57;;
26536;SDS011;14204;51.262;5.488;2023-08-31T03:27:40;9.20;;;7.03;;
26536;SDS011;14204;51.262;5.488;2023-08-31T03:30:06;8.93;;;6.35;;
26536;SDS011;14204;51.262;5.488;2023-08-31T03:32:33;8.82;;;6.43;;
26536;SDS011;14204;51.262;5.488;2023-08-31T03:34:58;11.13;;;6.47;;
26536;SDS011;14204;51.262;5.488;2023-08-31T03:37:26;8.25;;;6.18;;
26536;SDS011;14204;51.262;5.488;2023-08-31T03:39:52;12.23;;;6.03;;
26536;SDS011;14204;51.262;5.488;2023-08-31T03:42:17;10.15;;;7.00;;
26536;SDS011;14204;51.262;5.488;2023-08-31T03:44:43;8.45;;;6.45;;
26536;SDS011;14204;51.262;5.488;2023-08-31T03:47:09;9.82;;;6.53;;
26536;SDS011;14204;51.262;5.488;2023-08-31T03:49:34;9.95;;;6.45;;
26536;SDS011;14204;51.262;5.488;2023-08-31T03:52:00;12.20;;;6.97;;
26536;SDS011;14204;51.262;5.488;2023-08-31T03:54:26;12.95;;;7.95;;
26536;SDS011;14204;51.262;5.488;2023-08-31T03:56:52;12.43;;;6.60;;
26536;SDS011;14204;51.262;5.488;2023-08-31T03:59:17;11.77;;;7.28;;
26536;SDS011;14204;51.262;5.488;2023-08-31T04:01:43;11.70;;;7.40;;
26536;SDS011;14204;51.262;5.488;2023-08-31T04:04:09;8.15;;;7.03;;
26536;SDS011;14204;51.262;5.488;2023-08-31T04:06:34;9.75;;;7.13;;
26536;SDS011;14204;51.262;5.488;2023-08-31T04:09:00;11.55;;;7.25;;
26536;SDS011;14204;51.262;5.488;2023-08-31T04:11:26;11.02;;;7.65;;
26536;SDS011;14204;51.262;5.488;2023-08-31T04:13:52;11.45;;;7.35;;
26536;SDS011;14204;51.262;5.488;2023-08-31T04:16:18;8.88;;;7.00;;
26536;SDS011;14204;51.262;5.488;2023-08-31T04:18:44;11.27;;;6.97;;
26536;SDS011;14204;51.262;5.488;2023-08-31T04:21:16;10.73;;;7.25;;
26536;SDS011;14204;51.262;5.488;2023-08-31T04:23:42;13.02;;;7.18;;
26536;SDS011;14204;51.262;5.488;2023-08-31T04:26:11;8.43;;;6.38;;
26536;SDS011;14204;51.262;5.488;2023-08-31T04:28:38;10.63;;;7.40;;
26536;SDS011;14204;51.262;5.488;2023-08-31T04:31:05;8.18;;;6.78;;
26536;SDS011;14204;51.262;5.488;2023-08-31T04:33:33;12.60;;;8.13;;
26536;SDS011;14204;51.262;5.488;2023-08-31T04:36:03;12.25;;;7.55;;
26536;SDS011;14204;51.262;5.488;2023-08-31T04:38:29;11.27;;;8.05;;
26536;SDS011;14204;51.262;5.488;2023-08-31T04:40:59;13.65;;;7.93;;
26536;SDS011;14204;51.262;5.488;2023-08-31T04:43:25;12.23;;;7.88;;
26536;SDS011;14204;51.262;5.488;2023-08-31T04:45:51;10.45;;;8.10;;
26536;SDS011;14204;51.262;5.488;2023-08-31T04:48:17;11.43;;;7.47;;
26536;SDS011;14204;51.262;5.488;2023-08-31T04:50:43;13.02;;;8.00;;
26536;SDS011;14204;51.262;5.488;2023-08-31T04:53:08;13.15;;;9.18;;
26536;SDS011;14204;51.262;5.488;2023-08-31T04:55:34;15.43;;;8.30;;
26536;SDS011;14204;51.262;5.488;2023-08-31T04:58:00;12.43;;;8.63;;
26536;SDS011;14204;51.262;5.488;2023-08-31T05:00:25;12.30;;;8.23;;
26536;SDS011;14204;51.262;5.488;2023-08-31T05:02:51;13.25;;;8.68;;
26536;SDS011;14204;51.262;5.488;2023-08-31T05:05:17;13.13;;;8.73;;
26536;SDS011;14204;51.262;5.488;2023-08-31T05:07:45;9.40;;;6.93;;
26536;SDS011;14204;51.262;5.488;2023-08-31T05:10:11;13.85;;;8.63;;
26536;SDS011;14204;51.262;5.488;2023-08-31T05:12:36;16.50;;;9.02;;
26536;SDS011;14204;51.262;5.488;2023-08-31T05:15:02;12.98;;;7.72;;
26536;SDS011;14204;51.262;5.488;2023-08-31T05:17:28;17.30;;;9.10;;
26536;SDS011;14204;51.262;5.488;2023-08-31T05:19:55;11.63;;;7.82;;
26536;SDS011;14204;51.262;5.488;2023-08-31T05:22:21;9.63;;;8.00;;
26536;SDS011;14204;51.262;5.488;2023-08-31T05:24:47;12.05;;;8.23;;
26536;SDS011;14204;51.262;5.488;2023-08-31T05:27:13;12.57;;;8.70;;
26536;SDS011;14204;51.262;5.488;2023-08-31T05:29:39;12.00;;;7.70;;
26536;SDS011;14204;51.262;5.488;2023-08-31T05:32:04;9.52;;;7.75;;
26536;SDS011;14204;51.262;5.488;2023-08-31T05:34:30;14.57;;;8.48;;
26536;SDS011;14204;51.262;5.488;2023-08-31T05:36:59;12.48;;;8.23;;
26536;SDS011;14204;51.262;5.488;2023-08-31T05:39:25;11.48;;;8.63;;
26536;SDS011;14204;51.262;5.488;2023-08-31T05:41:51;11.10;;;8.35;;
26536;SDS011;14204;51.262;5.488;2023-08-31T05:44:16;12.35;;;8.30;;
26536;SDS011;14204;51.262;5.488;2023-08-31T05:46:42;11.18;;;8.00;;
26536;SDS011;14204;51.262;5.488;2023-08-31T05:49:08;11.20;;;7.70;;
26536;SDS011;14204;51.262;5.488;2023-08-31T05:51:34;11.00;;;7.60;;
26536;SDS011;14204;51.262;5.488;2023-08-31T05:54:00;15.55;;;8.32;;
26536;SDS011;14204;51.262;5.488;2023-08-31T05:56:26;11.20;;;7.70;;
26536;SDS011;14204;51.262;5.488;2023-08-31T05:58:51;10.35;;;7.57;;
26536;SDS011;14204;51.262;5.488;2023-08-31T06:01:19;13.02;;;7.68;;
26536;SDS011;14204;51.262;5.488;2023-08-31T06:03:45;13.23;;;8.05;;
26536;SDS011;14204;51.262;5.488;2023-08-31T06:06:11;11.02;;;7.10;;
26536;SDS011;14204;51.262;5.488;2023-08-31T06:11:32;9.57;;;7.70;;
26536;SDS011;14204;51.262;5.488;2023-08-31T06:13:57;10.40;;;7.70;;
26536;SDS011;14204;51.262;5.488;2023-08-31T06:16:23;10.02;;;7.28;;
26536;SDS011;14204;51.262;5.488;2023-08-31T06:18:49;10.63;;;6.72;;
26536;SDS011;14204;51.262;5.488;2023-08-31T06:21:14;11.68;;;7.32;;
26536;SDS011;14204;51.262;5.488;2023-08-31T06:23:40;13.65;;;8.25;;
26536;SDS011;14204;51.262;5.488;2023-08-31T06:26:06;16.08;;;8.05;;
26536;SDS011;14204;51.262;5.488;2023-08-31T06:28:32;12.05;;;7.97;;
26536;SDS011;14204;51.262;5.488;2023-08-31T06:30:59;16.17;;;9.32;;
26536;SDS011;14204;51.262;5.488;2023-08-31T06:33:24;12.35;;;8.77;;
26536;SDS011;14204;51.262;5.488;2023-08-31T06:35:50;15.05;;;9.35;;
26536;SDS011;14204;51.262;5.488;2023-08-31T06:38:17;12.27;;;8.63;;
26536;SDS011;14204;51.262;5.488;2023-08-31T06:40:43;12.73;;;9.23;;
26536;SDS011;14204;51.262;5.488;2023-08-31T06:43:09;14.48;;;9.23;;
26536;SDS011;14204;51.262;5.488;2023-08-31T06:45:35;13.75;;;8.55;;
26536;SDS011;14204;51.262;5.488;2023-08-31T06:48:01;12.98;;;8.00;;
26536;SDS011;14204;51.262;5.488;2023-08-31T06:50:27;12.82;;;7.97;;
26536;SDS011;14204;51.262;5.488;2023-08-31T06:52:53;13.02;;;8.70;;
26536;SDS011;14204;51.262;5.488;2023-08-31T06:55:18;14.52;;;7.90;;
26536;SDS011;14204;51.262;5.488;2023-08-31T06:57:44;13.02;;;8.20;;
26536;SDS011;14204;51.262;5.488;2023-08-31T07:00:10;12.20;;;8.75;;
26536;SDS011;14204;51.262;5.488;2023-08-31T07:02:39;11.43;;;8.52;;
26536;SDS011;14204;51.262;5.488;2023-08-31T07:05:07;10.23;;;7.35;;
26536;SDS011;14204;51.262;5.488;2023-08-31T07:07:35;12.23;;;8.15;;
26536;SDS011;14204;51.262;5.488;2023-08-31T07:10:01;12.00;;;7.35;;
26536;SDS011;14204;51.262;5.488;2023-08-31T07:12:27;15.18;;;7.70;;
26536;SDS011;14204;51.262;5.488;2023-08-31T07:14:53;14.38;;;8.82;;
26536;SDS011;14204;51.262;5.488;2023-08-31T07:17:18;15.27;;;7.65;;
26536;SDS011;14204;51.262;5.488;2023-08-31T07:19:44;14.63;;;8.10;;
26536;SDS011;14204;51.262;5.488;2023-08-31T07:22:10;12.55;;;7.47;;
26536;SDS011;14204;51.262;5.488;2023-08-31T07:24:37;13.60;;;6.97;;
26536;SDS011;14204;51.262;5.488;2023-08-31T07:27:03;17.27;;;7.55;;
26536;SDS011;14204;51.262;5.488;2023-08-31T07:29:29;16.73;;;7.72;;
26536;SDS011;14204;51.262;5.488;2023-08-31T07:31:56;12.13;;;7.40;;
26536;SDS011;14204;51.262;5.488;2023-08-31T07:34:22;13.23;;;7.10;;
26536;SDS011;14204;51.262;5.488;2023-08-31T07:36:48;11.40;;;6.50;;
26536;SDS011;14204;51.262;5.488;2023-08-31T07:39:14;8.52;;;5.85;;
26536;SDS011;14204;51.262;5.488;2023-08-31T07:41:42;13.45;;;6.57;;
26536;SDS011;14204;51.262;5.488;2023-08-31T07:44:08;10.18;;;6.32;;
26536;SDS011;14204;51.262;5.488;2023-08-31T07:46:35;12.98;;;6.45;;
26536;SDS011;14204;51.262;5.488;2023-08-31T07:49:01;11.25;;;6.75;;
26536;SDS011;14204;51.262;5.488;2023-08-31T07:51:28;11.63;;;6.10;;
26536;SDS011;14204;51.262;5.488;2023-08-31T07:53:53;11.55;;;5.38;;
26536;SDS011;14204;51.262;5.488;2023-08-31T07:56:19;7.65;;;5.95;;
26536;SDS011;14204;51.262;5.488;2023-08-31T07:58:45;13.93;;;5.55;;
26536;SDS011;14204;51.262;5.488;2023-08-31T08:01:10;12.32;;;5.60;;
26536;SDS011;14204;51.262;5.488;2023-08-31T08:03:36;13.50;;;4.97;;
26536;SDS011;14204;51.262;5.488;2023-08-31T08:06:02;10.65;;;5.13;;
26536;SDS011;14204;51.262;5.488;2023-08-31T08:08:28;11.45;;;5.43;;
26536;SDS011;14204;51.262;5.488;2023-08-31T08:10:54;9.65;;;5.00;;
26536;SDS011;14204;51.262;5.488;2023-08-31T08:13:20;8.57;;;4.75;;
26536;SDS011;14204;51.262;5.488;2023-08-31T08:15:46;8.07;;;4.88;;
26536;SDS011;14204;51.262;5.488;2023-08-31T08:18:12;8.73;;;4.65;;
26536;SDS011;14204;51.262;5.488;2023-08-31T08:20:38;14.90;;;5.00;;
26536;SDS011;14204;51.262;5.488;2023-08-31T08:23:05;10.38;;;4.85;;
26536;SDS011;14204;51.262;5.488;2023-08-31T08:25:31;11.68;;;5.47;;
26536;SDS011;14204;51.262;5.488;2023-08-31T08:27:57;11.63;;;5.43;;
26536;SDS011;14204;51.262;5.488;2023-08-31T08:30:23;13.88;;;5.35;;
26536;SDS011;14204;51.262;5.488;2023-08-31T08:32:49;10.82;;;5.55;;
26536;SDS011;14204;51.262;5.488;2023-08-31T08:35:14;8.90;;;5.28;;
26536;SDS011;14204;51.262;5.488;2023-08-31T08:37:40;13.02;;;5.68;;
26536;SDS011;14204;51.262;5.488;2023-08-31T08:40:06;14.07;;;5.28;;
26536;SDS011;14204;51.262;5.488;2023-08-31T08:42:33;10.05;;;5.50;;
26536;SDS011;14204;51.262;5.488;2023-08-31T08:45:07;9.50;;;4.93;;
26536;SDS011;14204;51.262;5.488;2023-08-31T08:47:38;11.85;;;4.72;;
26536;SDS011;14204;51.262;5.488;2023-08-31T08:50:05;6.45;;;4.10;;
26536;SDS011;14204;51.262;5.488;2023-08-31T08:52:31;11.85;;;4.32;;
26536;SDS011;14204;51.262;5.488;2023-08-31T08:54:57;9.68;;;4.18;;
26536;SDS011;14204;51.262;5.488;2023-08-31T08:57:24;10.55;;;5.13;;
26536;SDS011;14204;51.262;5.488;2023-08-31T08:59:50;9.45;;;3.92;;
26536;SDS011;14204;51.262;5.488;2023-08-31T09:02:15;8.77;;;4.10;;
26536;SDS011;14204;51.262;5.488;2023-08-31T09:04:41;5.30;;;2.92;;
26536;SDS011;14204;51.262;5.488;2023-08-31T09:07:08;6.78;;;3.35;;
26536;SDS011;14204;51.262;5.488;2023-08-31T09:09:42;9.57;;;3.28;;
26536;SDS011;14204;51.262;5.488;2023-08-31T09:12:14;13.52;;;3.95;;
26536;SDS011;14204;51.262;5.488;2023-08-31T09:14:40;9.50;;;3.60;;
26536;SDS011;14204;51.262;5.488;2023-08-31T09:17:05;6.68;;;3.30;;
26536;SDS011;14204;51.262;5.488;2023-08-31T09:19:31;8.85;;;3.30;;
26536;SDS011;14204;51.262;5.488;2023-08-31T09:21:57;7.90;;;3.20;;
26536;SDS011;14204;51.262;5.488;2023-08-31T09:24:23;8.40;;;2.97;;
26536;SDS011;14204;51.262;5.488;2023-08-31T09:26:56;5.65;;;3.03;;
26536;SDS011;14204;51.262;5.488;2023-08-31T09:29:23;4.90;;;3.00;;
26536;SDS011;14204;51.262;5.488;2023-08-31T09:31:49;6.25;;;2.67;;
26536;SDS011;14204;51.262;5.488;2023-08-31T09:34:15;11.45;;;3.33;;
26536;SDS011;14204;51.262;5.488;2023-08-31T09:36:42;7.80;;;2.70;;
26536;SDS011;14204;51.262;5.488;2023-08-31T09:39:08;8.48;;;2.90;;
26536;SDS011;14204;51.262;5.488;2023-08-31T09:41:35;10.32;;;2.83;;
26536;SDS011;14204;51.262;5.488;2023-08-31T09:44:17;7.47;;;2.60;;
26536;SDS011;14204;51.262;5.488;2023-08-31T09:46:44;9.82;;;2.40;;
26536;SDS011;14204;51.262;5.488;2023-08-31T09:49:14;6.25;;;2.30;;
26536;SDS011;14204;51.262;5.488;2023-08-31T09:51:44;7.95;;;2.35;;
26536;SDS011;14204;51.262;5.488;2023-08-31T09:54:13;11.05;;;2.75;;
26536;SDS011;14204;51.262;5.488;2023-08-31T09:56:41;7.63;;;2.25;;
26536;SDS011;14204;51.262;5.488;2023-08-31T09:59:08;7.05;;;2.50;;
26536;SDS011;14204;51.262;5.488;2023-08-31T10:01:35;4.85;;;2.00;;
26536;SDS011;14204;51.262;5.488;2023-08-31T10:04:02;7.05;;;2.50;;
26536;SDS011;14204;51.262;5.488;2023-08-31T10:06:28;7.47;;;2.30;;
26536;SDS011;14204;51.262;5.488;2023-08-31T10:08:55;9.05;;;2.50;;
26536;SDS011;14204;51.262;5.488;2023-08-31T10:11:22;6.40;;;1.92;;
26536;SDS011;14204;51.262;5.488;2023-08-31T10:13:52;5.53;;;2.03;;
26536;SDS011;14204;51.262;5.488;2023-08-31T10:16:21;5.15;;;2.03;;
26536;SDS011;14204;51.262;5.488;2023-08-31T10:18:47;7.20;;;1.83;;
26536;SDS011;14204;51.262;5.488;2023-08-31T10:21:17;3.78;;;1.98;;
26536;SDS011;14204;51.262;5.488;2023-08-31T10:23:47;3.50;;;1.80;;
26536;SDS011;14204;51.262;5.488;2023-08-31T10:26:30;7.07;;;2.15;;
26536;SDS011;14204;51.262;5.488;2023-08-31T10:28:57;5.63;;;2.35;;
26536;SDS011;14204;51.262;5.488;2023-08-31T10:31:24;5.43;;;2.35;;
26536;SDS011;14204;51.262;5.488;2023-08-31T10:33:56;6.72;;;2.22;;
26536;SDS011;14204;51.262;5.488;2023-08-31T10:36:44;6.17;;;2.30;;
26536;SDS011;14204;51.262;5.488;2023-08-31T10:39:11;6.25;;;2.30;;
26536;SDS011;14204;51.262;5.488;2023-08-31T10:41:56;9.25;;;2.40;;
26536;SDS011;14204;51.262;5.488;2023-08-31T10:44:23;7.05;;;2.17;;
26536;SDS011;14204;51.262;5.488;2023-08-31T10:46:50;11.65;;;2.58;;
26536;SDS011;14204;51.262;5.488;2023-08-31T10:49:20;6.32;;;2.65;;
26536;SDS011;14204;51.262;5.488;2023-08-31T10:51:56;3.38;;;2.65;;
26536;SDS011;14204;51.262;5.488;2023-08-31T10:54:39;7.20;;;3.00;;
26536;SDS011;14204;51.262;5.488;2023-08-31T10:57:06;8.05;;;2.75;;
26536;SDS011;14204;51.262;5.488;2023-08-31T11:02:26;5.57;;;2.67;;
26536;SDS011;14204;51.262;5.488;2023-08-31T11:07:23;11.13;;;3.10;;
26536;SDS011;14204;51.262;5.488;2023-08-31T11:09:50;6.78;;;2.65;;
26536;SDS011;14204;51.262;5.488;2023-08-31T11:12:16;4.97;;;2.78;;
26536;SDS011;14204;51.262;5.488;2023-08-31T11:14:41;6.95;;;2.40;;
26536;SDS011;14204;51.262;5.488;2023-08-31T11:17:07;12.52;;;3.10;;
26536;SDS011;14204;51.262;5.488;2023-08-31T11:19:34;6.55;;;2.50;;
26536;SDS011;14204;51.262;5.488;2023-08-31T11:22:02;5.70;;;2.92;;
26536;SDS011;14204;51.262;5.488;2023-08-31T11:24:31;5.75;;;2.72;;
26536;SDS011;14204;51.262;5.488;2023-08-31T11:26:58;6.75;;;2.80;;
26536;SDS011;14204;51.262;5.488;2023-08-31T11:29:23;5.80;;;2.92;;
26536;SDS011;14204;51.262;5.488;2023-08-31T11:31:49;4.63;;;2.33;;
26536;SDS011;14204;51.262;5.488;2023-08-31T11:34:16;5.25;;;2.70;;
26536;SDS011;14204;51.262;5.488;2023-08-31T11:36:43;7.05;;;2.17;;
26536;SDS011;14204;51.262;5.488;2023-08-31T11:39:11;4.60;;;2.47;;
26536;SDS011;14204;51.262;5.488;2023-08-31T11:41:38;4.43;;;2.58;;
26536;SDS011;14204;51.262;5.488;2023-08-31T11:44:08;4.88;;;2.25;;
26536;SDS011;14204;51.262;5.488;2023-08-31T11:46:35;3.80;;;2.25;;
26536;SDS011;14204;51.262;5.488;2023-08-31T11:49:02;3.08;;;2.30;;
26536;SDS011;14204;51.262;5.488;2023-08-31T11:51:29;7.97;;;2.63;;
26536;SDS011;14204;51.262;5.488;2023-08-31T11:53:57;5.63;;;2.40;;
26536;SDS011;14204;51.262;5.488;2023-08-31T11:56:24;5.82;;;2.13;;
26536;SDS011;14204;51.262;5.488;2023-08-31T11:58:50;3.20;;;2.28;;
26536;SDS011;14204;51.262;5.488;2023-08-31T12:01:20;4.15;;;2.40;;
26536;SDS011;14204;51.262;5.488;2023-08-31T12:03:46;7.15;;;2.20;;
26536;SDS011;14204;51.262;5.488;2023-08-31T12:06:18;7.60;;;2.00;;
26536;SDS011;14204;51.262;5.488;2023-08-31T12:08:44;4.75;;;1.90;;
26536;SDS011;14204;51.262;5.488;2023-08-31T12:11:11;4.80;;;2.00;;
26536;SDS011;14204;51.262;5.488;2023-08-31T12:13:37;3.15;;;1.80;;
26536;SDS011;14204;51.262;5.488;2023-08-31T12:16:02;4.25;;;2.03;;
26536;SDS011;14204;51.262;5.488;2023-08-31T12:18:30;5.72;;;2.03;;
26536;SDS011;14204;51.262;5.488;2023-08-31T12:20:58;5.22;;;1.75;;
26536;SDS011;14204;51.262;5.488;2023-08-31T12:23:25;4.25;;;2.30;;
26536;SDS011;14204;51.262;5.488;2023-08-31T12:25:54;6.78;;;1.90;;
26536;SDS011;14204;51.262;5.488;2023-08-31T12:28:21;3.53;;;1.70;;
26536;SDS011;14204;51.262;5.488;2023-08-31T12:30:48;5.00;;;1.63;;
26536;SDS011;14204;51.262;5.488;2023-08-31T12:33:19;5.95;;;2.20;;
26536;SDS011;14204;51.262;5.488;2023-08-31T12:35:45;5.53;;;2.10;;
26536;SDS011;14204;51.262;5.488;2023-08-31T12:38:12;3.78;;;2.17;;
26536;SDS011;14204;51.262;5.488;2023-08-31T12:40:39;3.33;;;1.95;;
26536;SDS011;14204;51.262;5.488;2023-08-31T12:43:05;7.47;;;1.70;;
26536;SDS011;14204;51.262;5.488;2023-08-31T12:45:31;3.97;;;1.70;;
26536;SDS011;14204;51.262;5.488;2023-08-31T12:48:05;4.68;;;2.03;;
26536;SDS011;14204;51.262;5.488;2023-08-31T12:50:30;6.05;;;1.83;;
26536;SDS011;14204;51.262;5.488;2023-08-31T12:52:56;2.78;;;1.70;;
26536;SDS011;14204;51.262;5.488;2023-08-31T12:55:22;4.32;;;1.60;;
26536;SDS011;14204;51.262;5.488;2023-08-31T12:57:48;3.65;;;1.75;;
26536;SDS011;14204;51.262;5.488;2023-08-31T13:00:14;4.00;;;1.98;;
26536;SDS011;14204;51.262;5.488;2023-08-31T13:02:40;3.78;;;2.00;;
26536;SDS011;14204;51.262;5.488;2023-08-31T13:05:07;5.40;;;2.13;;
26536;SDS011;14204;51.262;5.488;2023-08-31T13:07:36;4.00;;;1.80;;
26536;SDS011;14204;51.262;5.488;2023-08-31T13:10:03;2.33;;;1.60;;
26536;SDS011;14204;51.262;5.488;2023-08-31T13:12:33;8.20;;;2.30;;
26536;SDS011;14204;51.262;5.488;2023-08-31T13:14:59;5.05;;;2.08;;
26536;SDS011;14204;51.262;5.488;2023-08-31T13:17:25;3.60;;;1.67;;
26536;SDS011;14204;51.262;5.488;2023-08-31T13:19:54;7.10;;;1.65;;
26536;SDS011;14204;51.262;5.488;2023-08-31T13:22:21;5.75;;;2.00;;
26536;SDS011;14204;51.262;5.488;2023-08-31T13:24:47;4.60;;;1.88;;
26536;SDS011;14204;51.262;5.488;2023-08-31T13:27:13;5.47;;;2.30;;
26536;SDS011;14204;51.262;5.488;2023-08-31T13:29:39;3.35;;;2.00;;
26536;SDS011;14204;51.262;5.488;2023-08-31T13:32:05;6.32;;;2.58;;
26536;SDS011;14204;51.262;5.488;2023-08-31T13:34:32;4.32;;;1.98;;
26536;SDS011;14204;51.262;5.488;2023-08-31T13:36:58;8.95;;;3.20;;
26536;SDS011;14204;51.262;5.488;2023-08-31T13:39:25;6.18;;;2.60;;
26536;SDS011;14204;51.262;5.488;2023-08-31T13:41:51;6.05;;;2.30;;
26536;SDS011;14204;51.262;5.488;2023-08-31T13:44:18;4.00;;;1.77;;
26536;SDS011;14204;51.262;5.488;2023-08-31T13:46:45;3.85;;;2.22;;
26536;SDS011;14204;51.262;5.488;2023-08-31T13:49:12;4.00;;;2.10;;
26536;SDS011;14204;51.262;5.488;2023-08-31T13:51:38;4.45;;;2.03;;
26536;SDS011;14204;51.262;5.488;2023-08-31T13:54:04;4.57;;;2.00;;
26536;SDS011;14204;51.262;5.488;2023-08-31T13:56:30;6.28;;;2.38;;
26536;SDS011;14204;51.262;5.488;2023-08-31T13:58:56;7.03;;;2.47;;
26536;SDS011;14204;51.262;5.488;2023-08-31T14:01:22;9.77;;;2.28;;
26536;SDS011;14204;51.262;5.488;2023-08-31T14:03:47;6.32;;;2.40;;
26536;SDS011;14204;51.262;5.488;2023-08-31T14:06:13;5.30;;;2.38;;
26536;SDS011;14204;51.262;5.488;2023-08-31T14:08:40;6.80;;;3.08;;
26536;SDS011;14204;51.262;5.488;2023-08-31T14:11:06;7.80;;;2.92;;
26536;SDS011;14204;51.262;5.488;2023-08-31T14:13:32;7.25;;;3.03;;
26536;SDS011;14204;51.262;5.488;2023-08-31T14:15:59;5.53;;;2.72;;
26536;SDS011;14204;51.262;5.488;2023-08-31T14:18:29;8.50;;;2.95;;
26536;SDS011;14204;51.262;5.488;2023-08-31T14:20:57;8.05;;;2.88;;
26536;SDS011;14204;51.262;5.488;2023-08-31T14:23:26;4.22;;;2.80;;
26536;SDS011;14204;51.262;5.488;2023-08-31T14:25:52;5.88;;;2.40;;
26536;SDS011;14204;51.262;5.488;2023-08-31T14:28:18;4.43;;;2.22;;
26536;SDS011;14204;51.262;5.488;2023-08-31T14:30:43;7.43;;;2.70;;
26536;SDS011;14204;51.262;5.488;2023-08-31T14:33:09;7.72;;;2.90;;
26536;SDS011;14204;51.262;5.488;2023-08-31T14:35:38;3.83;;;1.90;;
26536;SDS011;14204;51.262;5.488;2023-08-31T14:38:04;4.45;;;1.90;;
26536;SDS011;14204;51.262;5.488;2023-08-31T14:40:30;5.65;;;2.58;;
26536;SDS011;14204;51.262;5.488;2023-08-31T14:42:59;8.48;;;2.33;;
26536;SDS011;14204;51.262;5.488;2023-08-31T14:45:25;4.97;;;2.10;;
26536;SDS011;14204;51.262;5.488;2023-08-31T14:47:51;4.65;;;2.35;;
26536;SDS011;14204;51.262;5.488;2023-08-31T14:50:16;7.90;;;2.67;;
26536;SDS011;14204;51.262;5.488;2023-08-31T14:52:42;7.38;;;2.30;;
26536;SDS011;14204;51.262;5.488;2023-08-31T14:55:08;8.98;;;2.30;;
26536;SDS011;14204;51.262;5.488;2023-08-31T14:57:33;5.32;;;2.53;;
26536;SDS011;14204;51.262;5.488;2023-08-31T14:59:59;7.55;;;2.20;;